createdAt,value
2022-08-22T00:00:07.415Z,71.49
2022-08-22T00:02:34.151Z,71.69
2022-08-22T00:02:42.774Z,63.78
2022-08-22T00:02:53.997Z,64.94
2022-08-22T00:03:09.242Z,71.39
2022-08-22T00:04:33.508Z,71.59
2022-08-22T00:06:01.637Z,71.39
2022-08-22T00:08:28.902Z,71.69
2022-08-22T00:10:55.818Z,71.59
2022-08-22T00:14:20.982Z,71.69
2022-08-22T00:18:44.217Z,72.03
2022-08-22T00:20:13.411Z,71.49
2022-08-22T00:25:06.186Z,72.13
2022-08-22T00:28:02.602Z,72.03
2022-08-22T00:34:52.105Z,72.13
2022-08-22T00:37:48.752Z,72.13
2022-08-22T00:43:10.075Z,72.23
2022-08-22T00:45:08.031Z,72.23
2022-08-22T00:48:04.042Z,72.53
2022-08-22T00:50:02.020Z,72.42
2022-08-22T00:53:56.147Z,72.23
2022-08-22T00:55:54.136Z,72.33
2022-08-22T00:57:52.225Z,72.53
2022-08-22T01:00:19.188Z,72.42
2022-08-22T01:03:44.201Z,72.53
2022-08-22T01:06:11.186Z,72.53
2022-08-22T01:14:34.944Z,72.42
2022-08-22T01:27:05.037Z,72.56
2022-08-22T01:30:30.117Z,72.42
2022-08-22T01:33:55.550Z,72.56
2022-08-22T01:40:53.404Z,73.06
2022-08-22T01:47:08.374Z,73.16
2022-08-22T01:56:50.977Z,73.30
2022-08-22T01:58:19.944Z,73.30
2022-08-22T02:00:47.231Z,73.39
2022-08-22T02:02:16.209Z,73.50
2022-08-22T02:04:14.237Z,73.16
2022-08-22T02:11:31.433Z,73.30
2022-08-22T02:18:48.985Z,73.70
2022-08-22T02:20:46.989Z,73.50
2022-08-22T02:24:41.061Z,73.39
2022-08-22T02:30:31.127Z,73.39
2022-08-22T02:34:25.230Z,73.50
2022-08-22T02:35:54.206Z,73.60
2022-08-22T02:37:52.271Z,73.50
2022-08-22T02:39:21.847Z,73.60
2022-08-22T02:44:13.265Z,73.73
2022-08-22T02:45:42.204Z,73.83
2022-08-22T02:56:51.889Z,74.03
2022-08-22T02:59:18.928Z,74.13
2022-08-22T03:00:47.934Z,74.13
2022-08-22T03:02:16.876Z,74.03
2022-08-22T03:04:14.910Z,74.03
2022-08-22T03:06:41.862Z,74.03
2022-08-22T03:16:24.114Z,74.47
2022-08-22T03:17:53.308Z,74.37
2022-08-22T03:21:47.753Z,74.57
2022-08-22T03:26:10.883Z,74.57
2022-08-22T03:27:39.843Z,74.57
2022-08-22T03:31:04.943Z,74.67
2022-08-22T03:36:55.280Z,74.71
2022-08-22T03:41:48.016Z,74.80
2022-08-22T03:44:16.180Z,74.71
2022-08-22T03:46:14.050Z,74.60
2022-08-22T03:50:07.684Z,74.71
2022-08-22T03:51:36.681Z,74.71
2022-08-22T03:53:34.703Z,74.80
2022-08-22T03:55:32.679Z,74.80
2022-08-22T03:57:02.261Z,74.80
2022-08-22T04:06:44.673Z,75.34
2022-08-22T04:09:11.643Z,75.34
2022-08-22T04:11:38.725Z,75.54
2022-08-22T04:15:03.781Z,75.31
2022-08-22T04:22:50.698Z,75.34
2022-08-22T04:26:16.017Z,75.24
2022-08-22T04:27:45.409Z,75.14
2022-08-22T04:30:41.480Z,75.24
2022-08-22T04:34:35.545Z,75.14
2022-08-22T04:39:27.686Z,75.34
2022-08-22T04:42:52.743Z,75.34
2022-08-22T04:45:48.913Z,75.31
2022-08-22T04:50:43.205Z,75.31
2022-08-22T04:56:07.136Z,75.31
2022-08-22T05:00:55.149Z,75.21
2022-08-22T05:02:24.133Z,75.21
2022-08-22T05:06:18.223Z,75.41
2022-08-22T05:09:43.256Z,75.31
2022-08-22T05:11:12.250Z,75.31
2022-08-22T05:13:10.315Z,75.21
2022-08-22T05:15:37.280Z,75.27
2022-08-22T05:17:06.276Z,75.27
2022-08-22T05:19:33.579Z,75.27
2022-08-22T05:25:52.852Z,75.37
2022-08-22T05:31:25.114Z,75.47
2022-08-22T05:34:21.897Z,75.37
2022-08-22T05:37:37.957Z,75.27
2022-08-22T05:40:25.004Z,75.37
2022-08-22T05:41:54.002Z,75.37
2022-08-22T05:43:51.974Z,75.17
2022-08-22T05:46:19.132Z,75.27
2022-08-22T05:47:48.100Z,75.27
2022-08-22T05:50:15.081Z,75.17
2022-08-22T05:52:13.135Z,74.97
2022-08-22T05:56:36.286Z,74.87
2022-08-22T05:59:32.340Z,74.87
2022-08-22T06:01:01.344Z,74.37
2022-08-22T06:04:57.020Z,74.77
2022-08-22T06:06:25.962Z,74.84
2022-08-22T06:09:22.294Z,74.93
2022-08-22T06:21:59.473Z,74.67
2022-08-22T06:27:49.808Z,74.73
2022-08-22T06:34:01.912Z,74.33
2022-08-22T06:36:58.029Z,74.03
2022-08-22T06:42:48.191Z,74.43
2022-08-22T06:53:58.103Z,74.13
2022-08-22T06:56:25.545Z,74.03
2022-08-22T06:58:53.261Z,74.10
2022-08-22T07:01:49.643Z,74.10
2022-08-22T07:07:39.934Z,74.03
2022-08-22T07:09:38.196Z,73.90
2022-08-22T07:12:34.238Z,73.90
2022-08-22T07:15:01.557Z,73.90
2022-08-22T07:16:59.528Z,73.90
2022-08-22T07:19:26.538Z,73.80
2022-08-22T07:24:48.521Z,74.00
2022-08-22T07:26:17.274Z,73.90
2022-08-22T07:31:09.414Z,73.90
2022-08-22T07:35:03.584Z,73.60
2022-08-22T07:37:30.567Z,73.50
2022-08-22T07:53:32.061Z,73.66
2022-08-22T07:56:57.857Z,73.16
2022-08-22T07:58:26.796Z,73.16
2022-08-22T07:59:56.133Z,73.06
2022-08-22T08:02:51.830Z,73.66
2022-08-22T08:04:50.203Z,73.26
2022-08-22T08:11:09.546Z,73.36
2022-08-22T08:12:38.555Z,73.46
2022-08-22T08:16:32.618Z,73.13
2022-08-22T08:21:24.818Z,72.63
2022-08-22T08:22:53.843Z,72.39
2022-08-22T08:24:22.771Z,72.19
2022-08-22T08:30:42.159Z,72.09
2022-08-22T08:32:40.132Z,71.69
2022-08-22T08:34:09.295Z,71.59
2022-08-22T08:36:36.293Z,71.59
2022-08-22T08:40:30.565Z,71.76
2022-08-22T08:45:22.798Z,71.56
2022-08-22T08:47:49.891Z,72.06
2022-08-22T08:51:15.078Z,71.36
2022-08-22T08:53:13.096Z,70.76
2022-08-22T08:55:19.979Z,70.96
2022-08-22T08:56:42.743Z,70.66
2022-08-22T08:59:10.269Z,70.76
2022-08-22T09:04:31.462Z,70.86
2022-08-22T09:07:27.466Z,70.56
2022-08-22T09:13:47.415Z,71.16
2022-08-22T09:16:46.296Z,72.02
2022-08-22T09:20:39.073Z,71.33
2022-08-22T09:23:10.061Z,71.52
2022-08-22T09:27:59.431Z,71.12
2022-08-22T09:30:28.758Z,71.03
2022-08-22T09:33:50.692Z,71.52
2022-08-22T09:38:14.510Z,71.52
2022-08-22T09:40:17.105Z,71.39
2022-08-22T09:42:44.927Z,70.89
2022-08-22T09:45:09.176Z,71.99
2022-08-22T09:47:39.476Z,71.19
2022-08-22T09:51:28.708Z,70.56
2022-08-22T09:52:46.594Z,70.65
2022-08-22T09:56:15.712Z,69.96
2022-08-22T09:58:11.223Z,69.86
2022-08-22T10:00:37.121Z,70.16
2022-08-22T10:04:03.124Z,69.32
2022-08-22T10:06:00.454Z,68.33
2022-08-22T10:07:29.457Z,68.93
2022-08-22T10:09:56.862Z,69.02
2022-08-22T10:12:24.780Z,68.83
2022-08-22T10:13:57.396Z,69.43
2022-08-22T10:15:23.330Z,69.13
2022-08-22T10:16:52.521Z,68.43
2022-08-22T10:19:19.569Z,68.43
2022-08-22T10:21:17.562Z,68.03
2022-08-22T10:22:46.647Z,68.40
2022-08-22T10:24:25.267Z,67.90
2022-08-22T10:25:46.844Z,68.60
2022-08-22T10:28:13.848Z,69.20
2022-08-22T10:29:42.849Z,68.00
2022-08-22T10:34:06.119Z,66.80
2022-08-22T10:37:31.360Z,67.80
2022-08-22T10:40:57.205Z,67.30
2022-08-22T10:42:54.931Z,67.10
2022-08-22T10:45:24.050Z,67.60
2022-08-22T10:48:50.399Z,66.80
2022-08-22T10:51:18.108Z,67.17
2022-08-22T11:03:10.703Z,66.04
2022-08-22T11:06:35.420Z,66.14
2022-08-22T11:08:04.864Z,65.24
2022-08-22T11:11:32.610Z,66.04
2022-08-22T11:14:27.603Z,67.13
2022-08-22T11:22:37.250Z,67.13
2022-08-22T11:24:46.493Z,65.84
2022-08-22T11:27:07.985Z,65.44
2022-08-22T11:28:38.100Z,66.14
2022-08-22T11:30:44.962Z,65.01
2022-08-22T11:33:47.108Z,64.42
2022-08-22T11:35:09.041Z,64.09
2022-08-22T11:37:04.617Z,64.48
2022-08-22T11:38:33.530Z,62.37
2022-08-22T11:40:03.702Z,62.46
2022-08-22T11:44:55.970Z,61.34
2022-08-22T11:49:20.148Z,63.92
2022-08-22T11:52:37.184Z,61.41
2022-08-22T11:56:05.734Z,61.71
2022-08-22T12:07:16.671Z,59.72
2022-08-22T12:13:07.235Z,59.03
2022-08-22T12:17:55.714Z,60.91
2022-08-22T12:19:03.789Z,61.51
2022-08-22T12:22:28.833Z,60.09
2022-08-22T12:24:57.780Z,58.60
2022-08-22T12:26:25.626Z,58.20
2022-08-22T12:29:51.969Z,58.37
2022-08-22T12:31:50.248Z,57.98
2022-08-22T12:34:17.229Z,58.27
2022-08-22T12:37:52.779Z,58.87
2022-08-22T12:43:07.777Z,59.07
2022-08-22T12:44:36.806Z,59.00
2022-08-22T12:46:05.814Z,58.80
2022-08-22T12:48:07.576Z,58.60
2022-08-22T12:49:36.187Z,58.50
2022-08-22T12:52:04.230Z,58.10
2022-08-22T13:03:15.435Z,59.19
2022-08-22T13:06:13.659Z,58.57
2022-08-22T13:08:38.851Z,57.18
2022-08-22T13:10:07.814Z,57.58
2022-08-22T13:11:36.813Z,57.58
2022-08-22T13:13:12.599Z,57.58
2022-08-22T13:16:03.427Z,56.59
2022-08-22T13:18:25.139Z,56.49
2022-08-22T13:21:34.615Z,56.19
2022-08-22T13:23:56.161Z,55.87
2022-08-22T13:26:33.600Z,55.07
2022-08-22T13:29:00.265Z,54.85
2022-08-22T13:30:21.717Z,54.75
2022-08-22T13:33:46.556Z,54.42
2022-08-22T13:37:11.730Z,55.21
2022-08-22T13:38:46.320Z,55.88
2022-08-22T13:40:10.829Z,54.49
2022-08-22T13:47:10.955Z,53.90
2022-08-22T13:50:09.043Z,52.31
2022-08-22T13:56:04.951Z,53.31
2022-08-22T13:59:01.073Z,53.11
2022-08-22T14:01:28.391Z,52.41
2022-08-22T14:03:26.242Z,51.60
2022-08-22T14:05:24.692Z,53.88
2022-08-22T14:07:24.048Z,52.39
2022-08-22T14:09:31.970Z,52.81
2022-08-22T14:13:45.083Z,53.20
2022-08-22T14:17:10.227Z,53.20
2022-08-22T14:19:08.171Z,53.73
2022-08-22T14:21:40.653Z,53.73
2022-08-22T14:24:03.503Z,54.52
2022-08-22T14:25:32.419Z,54.92
2022-08-22T14:27:05.305Z,55.02
2022-08-22T14:28:30.429Z,54.52
2022-08-22T14:31:00.650Z,55.32
2022-08-22T14:32:30.922Z,56.11
2022-08-22T14:34:54.737Z,54.45
2022-08-22T14:37:21.849Z,55.24
2022-08-22T14:39:19.959Z,55.04
2022-08-22T14:41:19.768Z,54.05
2022-08-22T14:47:32.285Z,57.23
2022-08-22T14:49:07.387Z,56.53
2022-08-22T14:50:36.739Z,54.25
2022-08-22T14:52:06.041Z,55.54
2022-08-22T14:54:04.223Z,54.35
2022-08-22T14:57:03.407Z,56.23
2022-08-22T14:58:33.385Z,55.34
2022-08-22T15:00:31.450Z,55.64
2022-08-22T15:03:02.768Z,54.45
2022-08-22T15:04:31.824Z,52.07
2022-08-22T15:08:27.630Z,52.54
2022-08-22T15:13:48.019Z,54.99
2022-08-22T15:15:53.424Z,53.60
2022-08-22T15:17:45.068Z,54.67
2022-08-22T15:19:14.065Z,54.37
2022-08-22T15:21:12.347Z,54.17
2022-08-22T15:22:41.335Z,53.58
2022-08-22T15:25:08.475Z,56.85
2022-08-22T15:29:32.469Z,54.30
2022-08-22T15:33:55.471Z,54.79
2022-08-22T15:36:22.768Z,54.79
2022-08-22T15:38:50.025Z,55.66
2022-08-22T15:41:17.637Z,55.19
2022-08-22T15:43:15.667Z,53.20
2022-08-22T15:47:43.875Z,54.39
2022-08-22T15:49:12.872Z,53.60
2022-08-22T15:54:13.161Z,54.99
2022-08-22T15:58:35.758Z,54.00
2022-08-22T16:00:12.386Z,53.31
2022-08-22T16:06:07.730Z,54.79
2022-08-22T16:07:37.382Z,52.51
2022-08-22T16:11:06.496Z,53.80
2022-08-22T16:14:33.161Z,54.00
2022-08-22T16:17:45.074Z,53.73
2022-08-22T16:19:43.024Z,52.94
2022-08-22T16:21:12.006Z,52.64
2022-08-22T16:22:44.527Z,53.83
2022-08-22T16:24:11.031Z,54.62
2022-08-22T16:27:07.555Z,54.42
2022-08-22T16:32:00.837Z,55.11
2022-08-22T16:35:55.559Z,54.15
2022-08-22T16:38:22.838Z,53.26
2022-08-22T16:43:15.635Z,55.04
2022-08-22T16:45:42.589Z,53.96
2022-08-22T16:47:11.632Z,53.75
2022-08-22T16:50:18.438Z,53.75
2022-08-22T16:56:41.601Z,53.85
2022-08-22T17:01:05.579Z,53.66
2022-08-22T17:05:58.613Z,53.75
2022-08-22T17:07:27.662Z,53.63
2022-08-22T17:09:26.197Z,53.53
2022-08-22T17:10:55.196Z,53.92
2022-08-22T17:13:22.316Z,53.73
2022-08-22T17:14:51.294Z,53.66
2022-08-22T17:16:20.344Z,54.15
2022-08-22T17:19:45.653Z,54.55
2022-08-22T17:24:38.431Z,55.15
2022-08-22T17:28:25.945Z,54.97
2022-08-22T17:34:45.943Z,54.68
2022-08-22T17:36:44.196Z,55.07
2022-08-22T17:39:11.353Z,54.57
2022-08-22T17:41:09.462Z,54.87
2022-08-22T17:44:34.591Z,54.47
2022-08-22T17:46:32.649Z,54.57
2022-08-22T17:49:29.716Z,54.57
2022-08-22T17:51:56.954Z,55.17
2022-08-22T17:56:20.796Z,55.19
2022-08-22T17:58:31.604Z,55.10
2022-08-22T18:00:47.758Z,55.10
2022-08-22T18:03:43.326Z,54.90
2022-08-22T18:05:12.675Z,54.90
2022-08-22T18:07:10.787Z,55.40
2022-08-22T18:09:16.014Z,55.29
2022-08-22T18:10:40.162Z,55.49
2022-08-22T18:12:09.292Z,55.49
2022-08-22T18:16:24.594Z,56.19
2022-08-22T18:18:21.894Z,55.59
2022-08-22T18:20:51.823Z,55.49
2022-08-22T18:22:20.848Z,55.59
2022-08-22T18:28:12.100Z,55.82
2022-08-22T18:30:44.040Z,55.91
2022-08-22T18:33:38.498Z,56.21
2022-08-22T18:36:07.011Z,56.61
2022-08-22T18:38:19.135Z,57.21
2022-08-22T18:41:31.589Z,57.51
2022-08-22T18:43:29.817Z,57.53
2022-08-22T18:52:17.475Z,58.33
2022-08-22T18:55:15.096Z,58.95
2022-08-22T19:00:08.107Z,59.95
2022-08-22T19:02:06.469Z,60.25
2022-08-22T19:03:22.302Z,60.35
2022-08-22T19:04:20.402Z,60.44
2022-08-22T19:05:33.129Z,60.38
2022-08-22T19:08:09.953Z,60.27
2022-08-22T19:10:06.979Z,60.68
2022-08-22T19:15:14.679Z,60.08
2022-08-22T19:20:36.719Z,61.37
2022-08-22T19:23:32.945Z,61.10
2022-08-22T19:26:00.015Z,60.90
2022-08-22T19:28:27.955Z,61.80
2022-08-22T19:31:24.150Z,61.99
2022-08-22T19:33:51.193Z,61.60
2022-08-22T19:37:45.869Z,62.19
2022-08-22T19:41:11.072Z,62.13
2022-08-22T19:44:37.018Z,62.52
2022-08-22T19:46:05.397Z,62.62
2022-08-22T19:54:20.873Z,62.42
2022-08-22T19:55:49.909Z,62.13
2022-08-22T19:58:46.051Z,62.02
2022-08-22T20:00:15.388Z,62.52
2022-08-22T20:02:13.076Z,62.62
2022-08-22T20:03:42.390Z,62.92
2022-08-22T20:06:21.962Z,63.12
2022-08-22T20:08:39.135Z,63.22
2022-08-22T20:10:07.053Z,63.25
2022-08-22T20:11:47.711Z,62.92
2022-08-22T20:17:37.436Z,63.25
2022-08-22T20:22:01.835Z,62.85
2022-08-22T20:24:00.392Z,62.65
2022-08-22T20:25:43.034Z,62.15
2022-08-22T20:27:57.267Z,62.35
2022-08-22T20:30:24.376Z,62.65
2022-08-22T20:32:22.681Z,63.25
2022-08-22T20:34:49.786Z,63.25
2022-08-22T20:36:27.656Z,63.25
2022-08-22T20:39:16.289Z,62.95
2022-08-22T20:41:20.179Z,62.95
2022-08-22T20:43:42.662Z,63.25
2022-08-22T20:47:07.764Z,62.35
2022-08-22T20:57:25.493Z,62.65
2022-08-22T20:59:53.112Z,62.95
2022-08-22T21:02:20.891Z,62.55
2022-08-22T21:05:17.632Z,63.45
2022-08-22T21:07:15.266Z,63.48
2022-08-22T21:11:41.393Z,63.28
2022-08-22T21:15:35.749Z,63.18
2022-08-22T21:17:34.443Z,63.78
2022-08-22T21:19:03.086Z,63.68
2022-08-22T21:26:02.817Z,64.01
2022-08-22T21:28:01.446Z,64.21
2022-08-22T21:32:24.757Z,64.31
2022-08-22T21:43:34.816Z,64.84
2022-08-22T21:45:04.049Z,64.94
2022-08-22T21:47:31.642Z,64.94
2022-08-22T21:51:25.187Z,65.04
2022-08-22T21:53:23.293Z,65.04
2022-08-22T21:57:46.940Z,65.04
2022-08-22T21:59:51.979Z,65.14
2022-08-22T22:01:15.131Z,65.23
2022-08-22T22:03:13.694Z,65.17
2022-08-22T22:07:07.531Z,65.26
2022-08-22T22:08:36.422Z,65.26
2022-08-22T22:11:04.679Z,65.37
2022-08-22T22:13:30.929Z,65.26
2022-08-22T22:15:29.042Z,65.17
2022-08-22T22:17:27.309Z,65.37
2022-08-22T22:18:55.995Z,65.47
2022-08-22T22:20:25.334Z,65.37
2022-08-22T22:24:48.420Z,65.67
2022-08-22T22:26:46.554Z,65.87
2022-08-22T22:29:42.783Z,65.87
2022-08-22T22:32:38.956Z,66.09
2022-08-22T22:39:27.851Z,66.30
2022-08-22T22:40:56.828Z,66.39
2022-08-22T22:48:44.194Z,66.60
2022-08-22T22:51:13.122Z,66.73
2022-08-22T22:52:41.194Z,66.70
2022-08-22T22:57:04.227Z,66.73
2022-08-22T22:59:33.591Z,66.73
2022-08-22T23:01:58.274Z,66.63
2022-08-22T23:10:16.705Z,66.73
2022-08-22T23:11:44.071Z,66.93
2022-08-22T23:13:43.121Z,66.83
2022-08-22T23:20:33.929Z,67.03
2022-08-22T23:23:30.595Z,67.03
2022-08-22T23:24:59.604Z,67.13
2022-08-22T23:26:57.984Z,67.23
2022-08-22T23:28:55.926Z,67.13
2022-08-22T23:30:24.976Z,67.23
2022-08-22T23:35:46.450Z,67.63
2022-08-22T23:37:44.540Z,67.53
2022-08-22T23:43:34.626Z,67.33
2022-08-22T23:49:27.402Z,67.43
2022-08-22T23:51:25.467Z,67.43
2022-08-22T23:53:52.579Z,67.53
2022-08-22T23:57:18.391Z,67.43
